createdAt,value
2023-01-08T00:00:56.271Z,99.40
2023-01-08T00:01:58.688Z,99.13
2023-01-08T00:03:01.871Z,99.20
2023-01-08T00:04:04.998Z,99.18
2023-01-08T00:05:07.879Z,99.40
2023-01-08T00:06:15.099Z,98.97
2023-01-08T00:07:16.928Z,99.20
2023-01-08T00:08:21.336Z,99.28
2023-01-08T00:09:23.186Z,98.95
2023-01-08T00:10:26.110Z,99.47
2023-01-08T00:11:28.477Z,99.61
2023-01-08T00:12:31.243Z,99.67
2023-01-08T00:13:33.431Z,99.93
2023-01-08T00:14:36.224Z,99.23
2023-01-08T00:15:38.071Z,99.39
2023-01-08T00:16:41.230Z,99.71
2023-01-08T00:17:43.393Z,99.54
2023-01-08T00:18:46.677Z,99.66
2023-01-08T00:19:48.625Z,99.99
2023-01-08T00:20:51.677Z,100.00
2023-01-08T00:21:53.591Z,100.00
2023-01-08T00:22:56.500Z,100.00
2023-01-08T00:23:59.965Z,99.99
2023-01-08T00:25:02.861Z,99.88
2023-01-08T00:26:06.203Z,99.95
2023-01-08T00:27:09.309Z,100.00
2023-01-08T00:28:11.616Z,100.00
2023-01-08T00:29:14.407Z,100.00
2023-01-08T00:30:36.785Z,100.00
2023-01-08T00:31:39.723Z,100.00
2023-01-08T00:32:41.572Z,100.00
2023-01-08T00:33:44.758Z,100.00
2023-01-08T00:34:46.603Z,100.00
2023-01-08T00:35:49.413Z,100.00
2023-01-08T00:36:51.368Z,100.00
2023-01-08T00:37:54.120Z,100.00
2023-01-08T00:38:55.916Z,100.00
2023-01-08T00:40:00.159Z,100.00
2023-01-08T00:41:01.966Z,100.00
2023-01-08T00:42:05.082Z,100.00
2023-01-08T00:43:07.091Z,100.00
2023-01-08T00:44:10.108Z,100.00
2023-01-08T00:45:12.016Z,100.00
2023-01-08T00:46:15.107Z,100.00
2023-01-08T00:47:17.053Z,100.00
2023-01-08T00:48:20.124Z,100.00
2023-01-08T00:49:22.939Z,99.69
2023-01-08T00:50:25.004Z,99.62
2023-01-08T00:51:27.871Z,99.67
2023-01-08T00:52:30.174Z,99.75
2023-01-08T00:53:32.996Z,99.70
2023-01-08T00:54:34.859Z,99.38
2023-01-08T00:55:39.115Z,99.68
2023-01-08T00:56:40.876Z,99.13
2023-01-08T00:57:44.019Z,99.52
2023-01-08T00:58:46.741Z,99.44
2023-01-08T00:59:49.659Z,99.01
2023-01-08T01:00:51.449Z,99.02
2023-01-08T01:02:12.898Z,98.82
2023-01-08T01:03:18.089Z,99.02
2023-01-08T01:04:21.090Z,99.42
2023-01-08T01:05:22.941Z,99.00
2023-01-08T01:06:25.663Z,99.28
2023-01-08T01:07:27.390Z,99.15
2023-01-08T01:08:30.685Z,98.97
2023-01-08T01:09:32.666Z,99.13
2023-01-08T01:10:35.455Z,98.67
2023-01-08T01:11:39.614Z,99.14
2023-01-08T01:12:45.147Z,99.04
2023-01-08T01:13:48.437Z,98.58
2023-01-08T01:14:50.387Z,98.84
2023-01-08T01:15:59.582Z,98.26
2023-01-08T01:17:01.608Z,98.44
2023-01-08T01:18:04.616Z,98.49
2023-01-08T01:19:06.423Z,98.20
2023-01-08T01:20:11.868Z,98.50
2023-01-08T01:21:20.013Z,98.16
2023-01-08T01:22:22.728Z,97.77
2023-01-08T01:23:24.625Z,97.74
2023-01-08T01:24:28.167Z,97.68
2023-01-08T01:27:27.140Z,97.25
2023-01-08T01:28:29.203Z,96.87
2023-01-08T01:29:32.005Z,96.42
2023-01-08T01:30:33.893Z,96.46
2023-01-08T01:31:37.001Z,96.01
2023-01-08T01:32:38.901Z,95.94
2023-01-08T01:33:41.732Z,95.88
2023-01-08T01:34:44.711Z,95.51
2023-01-08T01:35:46.493Z,95.19
2023-01-08T01:36:49.324Z,94.52
2023-01-08T01:37:51.184Z,94.77
2023-01-08T01:38:55.461Z,94.00
2023-01-08T01:39:58.197Z,94.01
2023-01-08T01:41:01.364Z,93.99
2023-01-08T01:42:04.437Z,93.60
2023-01-08T01:43:10.323Z,93.23
2023-01-08T01:44:36.193Z,92.89
2023-01-08T01:45:39.091Z,92.85
2023-01-08T01:46:41.025Z,92.31
2023-01-08T01:47:46.031Z,92.41
2023-01-08T01:48:51.134Z,92.22
2023-01-08T01:49:56.670Z,92.01
2023-01-08T01:50:58.683Z,91.92
2023-01-08T01:52:02.735Z,92.07
2023-01-08T01:53:08.124Z,91.70
2023-01-08T01:54:12.877Z,91.60
2023-01-08T01:55:18.322Z,91.29
2023-01-08T01:56:21.368Z,91.20
2023-01-08T01:57:24.927Z,91.40
2023-01-08T01:58:30.661Z,91.38
2023-01-08T01:59:32.702Z,91.58
2023-01-08T02:00:36.382Z,91.84
2023-01-08T02:01:39.423Z,91.59
2023-01-08T02:02:42.238Z,91.40
2023-01-08T02:03:44.515Z,91.46
2023-01-08T02:04:47.391Z,91.09
2023-01-08T02:05:55.134Z,91.16
2023-01-08T02:07:02.210Z,90.89
2023-01-08T02:08:07.833Z,90.69
2023-01-08T02:09:17.374Z,91.09
2023-01-08T02:10:24.776Z,91.04
2023-01-08T02:11:32.871Z,91.48
2023-01-08T02:12:39.269Z,91.32
2023-01-08T02:13:48.743Z,91.30
2023-01-08T02:14:59.997Z,91.29
2023-01-08T02:16:09.005Z,91.55
2023-01-08T02:17:14.222Z,91.55
2023-01-08T02:18:21.634Z,91.37
2023-01-08T02:19:34.538Z,91.83
2023-01-08T02:20:39.236Z,91.69
2023-01-08T02:21:47.418Z,91.84
2023-01-08T02:23:00.032Z,91.90
2023-01-08T02:24:08.023Z,92.07
2023-01-08T02:25:15.379Z,92.08
2023-01-08T02:26:22.770Z,91.91
2023-01-08T02:27:26.638Z,91.66
2023-01-08T02:28:29.182Z,91.81
2023-01-08T02:29:33.803Z,91.87
2023-01-08T02:30:36.122Z,91.67
2023-01-08T02:31:40.962Z,91.66
2023-01-08T02:32:42.964Z,91.49
2023-01-08T02:33:46.108Z,91.20
2023-01-08T02:34:47.928Z,90.97
2023-01-08T02:35:55.484Z,90.82
2023-01-08T02:36:57.752Z,91.19
2023-01-08T02:38:00.511Z,91.11
2023-01-08T02:39:17.155Z,90.75
2023-01-08T02:40:24.224Z,90.19
2023-01-08T02:41:31.587Z,90.82
2023-01-08T02:42:39.184Z,90.70
2023-01-08T02:43:44.325Z,90.61
2023-01-08T02:44:55.105Z,90.60
2023-01-08T02:46:00.492Z,90.42
2023-01-08T02:47:03.039Z,90.45
2023-01-08T02:48:10.723Z,90.66
2023-01-08T02:49:14.006Z,90.81
2023-01-08T02:50:22.503Z,90.79
2023-01-08T02:51:28.615Z,91.18
2023-01-08T02:52:34.037Z,91.15
2023-01-08T02:53:40.016Z,90.58
2023-01-08T02:54:42.539Z,90.04
2023-01-08T02:55:48.283Z,90.35
2023-01-08T02:56:53.626Z,90.02
2023-01-08T02:57:57.130Z,90.07
2023-01-08T02:58:59.997Z,90.49
2023-01-08T03:00:03.348Z,90.33
2023-01-08T03:01:09.948Z,90.54
2023-01-08T03:02:13.518Z,90.43
2023-01-08T03:03:18.760Z,90.46
2023-01-08T03:04:24.837Z,90.62
2023-01-08T03:05:28.729Z,90.65
2023-01-08T03:06:30.980Z,90.46
2023-01-08T03:07:34.069Z,90.44
2023-01-08T03:08:39.351Z,90.42
2023-01-08T03:09:42.356Z,90.22
2023-01-08T03:10:46.297Z,90.20
2023-01-08T03:11:54.905Z,90.10
2023-01-08T03:12:59.402Z,90.00
2023-01-08T03:14:05.582Z,89.71
2023-01-08T03:15:09.394Z,89.49
2023-01-08T03:16:13.515Z,89.33
2023-01-08T03:17:20.303Z,89.34
2023-01-08T03:18:27.335Z,89.39
2023-01-08T03:19:32.071Z,89.45
2023-01-08T03:20:37.211Z,89.15
2023-01-08T03:21:39.841Z,89.30
2023-01-08T03:22:44.580Z,89.65
2023-01-08T03:23:47.675Z,89.16
2023-01-08T03:24:53.915Z,89.37
2023-01-08T03:25:56.019Z,89.21
2023-01-08T03:27:04.061Z,89.32
2023-01-08T03:28:08.937Z,89.04
2023-01-08T03:29:14.227Z,89.29
2023-01-08T03:30:16.655Z,89.24
2023-01-08T03:31:20.710Z,89.35
2023-01-08T03:32:24.332Z,89.55
2023-01-08T03:33:28.458Z,89.68
2023-01-08T03:34:32.408Z,89.72
2023-01-08T03:35:37.602Z,89.39
2023-01-08T03:36:41.503Z,89.50
2023-01-08T03:37:47.152Z,89.61
2023-01-08T03:38:52.956Z,89.26
2023-01-08T03:39:59.181Z,89.17
2023-01-08T03:41:06.628Z,89.34
2023-01-08T03:42:13.514Z,89.36
2023-01-08T03:43:15.289Z,89.72
2023-01-08T03:44:18.058Z,89.84
2023-01-08T03:45:21.090Z,89.83
2023-01-08T03:46:30.570Z,89.97
2023-01-08T03:47:33.264Z,90.05
2023-01-08T03:48:36.434Z,89.62
2023-01-08T03:49:39.404Z,89.42
2023-01-08T03:50:42.446Z,89.47
2023-01-08T03:51:45.802Z,89.91
2023-01-08T03:52:48.580Z,89.94
2023-01-08T03:53:51.139Z,89.62
2023-01-08T03:54:54.280Z,89.45
2023-01-08T03:55:56.912Z,89.30
2023-01-08T03:56:59.743Z,89.32
2023-01-08T03:58:04.009Z,89.77
2023-01-08T03:59:05.746Z,89.68
2023-01-08T04:00:09.512Z,89.73
2023-01-08T04:01:11.803Z,89.24
2023-01-08T04:02:15.267Z,89.04
2023-01-08T04:03:17.147Z,89.05
2023-01-08T04:04:20.078Z,89.29
2023-01-08T04:05:22.884Z,89.88
2023-01-08T04:06:24.681Z,89.83
2023-01-08T04:07:27.512Z,90.16
2023-01-08T04:08:29.309Z,90.46
2023-01-08T04:09:32.078Z,90.63
2023-01-08T04:10:53.739Z,90.35
2023-01-08T04:11:55.579Z,90.02
2023-01-08T04:12:58.346Z,89.94
2023-01-08T04:14:01.474Z,90.33
2023-01-08T04:15:05.153Z,90.08
2023-01-08T04:16:08.202Z,90.24
2023-01-08T04:17:12.909Z,90.57
2023-01-08T04:18:15.167Z,90.82
2023-01-08T04:19:17.933Z,90.68
2023-01-08T04:20:19.832Z,90.14
2023-01-08T04:21:22.831Z,90.27
2023-01-08T04:22:24.776Z,90.19
2023-01-08T04:23:27.562Z,89.79
2023-01-08T04:24:29.517Z,90.05
2023-01-08T04:25:32.400Z,89.95
2023-01-08T04:26:34.220Z,89.88
2023-01-08T04:27:37.080Z,90.03
2023-01-08T04:28:39.474Z,89.92
2023-01-08T04:29:43.615Z,89.67
2023-01-08T04:30:45.515Z,89.71
2023-01-08T04:31:48.372Z,89.34
2023-01-08T04:32:50.178Z,89.29
2023-01-08T04:33:53.220Z,89.47
2023-01-08T04:34:55.018Z,89.39
2023-01-08T04:35:58.935Z,89.92
2023-01-08T04:37:01.931Z,89.46
2023-01-08T04:38:03.995Z,89.69
2023-01-08T04:39:06.747Z,89.83
2023-01-08T04:40:11.192Z,89.39
2023-01-08T04:41:13.007Z,89.41
2023-01-08T04:42:15.746Z,89.19
2023-01-08T04:43:17.651Z,88.91
2023-01-08T04:44:20.391Z,89.26
2023-01-08T04:45:23.503Z,89.26
2023-01-08T04:46:26.294Z,89.88
2023-01-08T04:47:28.095Z,89.64
2023-01-08T04:48:32.103Z,89.86
2023-01-08T04:49:34.277Z,89.64
2023-01-08T04:50:38.918Z,89.65
2023-01-08T04:51:40.720Z,89.43
2023-01-08T04:52:43.925Z,89.26
2023-01-08T04:53:46.385Z,88.95
2023-01-08T04:54:49.145Z,88.95
2023-01-08T04:55:51.026Z,89.50
2023-01-08T04:56:53.883Z,89.39
2023-01-08T04:57:55.631Z,89.55
2023-01-08T04:59:16.998Z,89.73
2023-01-08T05:00:19.184Z,89.57
2023-01-08T05:01:26.419Z,89.99
2023-01-08T05:02:28.563Z,89.62
2023-01-08T05:03:31.588Z,90.01
2023-01-08T05:04:34.764Z,89.82
2023-01-08T05:05:36.663Z,89.68
2023-01-08T05:06:39.552Z,89.18
2023-01-08T05:07:41.343Z,88.90
2023-01-08T05:08:44.096Z,88.69
2023-01-08T05:09:46.012Z,88.67
2023-01-08T05:10:48.789Z,89.46
2023-01-08T05:11:50.703Z,89.49
2023-01-08T05:12:53.795Z,90.01
2023-01-08T05:13:56.474Z,89.95
2023-01-08T05:14:59.322Z,89.74
2023-01-08T05:16:01.569Z,90.20
2023-01-08T05:17:05.788Z,90.41
2023-01-08T05:18:07.587Z,90.25
2023-01-08T05:19:10.400Z,90.17
2023-01-08T05:20:12.304Z,90.42
2023-01-08T05:21:15.176Z,91.11
2023-01-08T05:22:17.235Z,91.10
2023-01-08T05:23:20.036Z,90.82
2023-01-08T05:24:22.826Z,90.79
2023-01-08T05:25:25.337Z,90.95
2023-01-08T05:26:28.115Z,90.66
2023-01-08T05:27:29.858Z,90.63
2023-01-08T05:28:33.180Z,90.97
2023-01-08T05:29:34.963Z,90.87
2023-01-08T05:30:38.124Z,90.94
2023-01-08T05:31:40.012Z,90.99
2023-01-08T05:32:44.154Z,91.20
2023-01-08T05:33:45.899Z,91.25
2023-01-08T05:34:48.907Z,91.35
2023-01-08T05:35:50.756Z,91.29
2023-01-08T05:36:53.622Z,91.23
2023-01-08T05:37:55.688Z,91.23
2023-01-08T05:38:58.460Z,91.13
2023-01-08T05:40:00.245Z,91.12
2023-01-08T05:41:03.514Z,90.50
2023-01-08T05:42:05.503Z,90.23
2023-01-08T05:43:08.229Z,89.65
2023-01-08T05:44:11.394Z,89.92
2023-01-08T05:45:13.162Z,89.96
2023-01-08T05:46:16.061Z,89.86
2023-01-08T05:47:17.919Z,90.16
2023-01-08T05:48:21.980Z,90.29
2023-01-08T05:49:24.074Z,90.52
2023-01-08T05:50:27.254Z,89.93
2023-01-08T05:51:29.033Z,89.59
2023-01-08T05:52:31.779Z,89.29
2023-01-08T05:53:33.730Z,89.30
2023-01-08T05:54:36.481Z,89.52
2023-01-08T05:55:38.254Z,89.69
2023-01-08T05:56:43.915Z,90.39
2023-01-08T05:57:45.715Z,90.10
2023-01-08T05:58:48.495Z,89.85
2023-01-08T05:59:50.352Z,89.89
2023-01-08T06:00:53.140Z,89.77
2023-01-08T06:01:55.023Z,89.76
2023-01-08T06:02:57.839Z,89.82
2023-01-08T06:04:01.088Z,89.73
2023-01-08T06:05:04.028Z,89.44
2023-01-08T06:06:09.950Z,89.28
2023-01-08T06:07:12.761Z,88.97
2023-01-08T06:08:14.760Z,89.25
2023-01-08T06:09:17.690Z,89.31
2023-01-08T06:10:19.442Z,89.48
2023-01-08T06:11:22.187Z,89.57
2023-01-08T06:12:24.444Z,89.24
2023-01-08T06:13:27.263Z,89.26
2023-01-08T06:14:29.052Z,89.50
2023-01-08T06:15:31.902Z,89.83
2023-01-08T06:16:33.678Z,89.82
2023-01-08T06:17:36.755Z,89.72
2023-01-08T06:18:39.727Z,89.48
2023-01-08T06:19:42.944Z,89.43
2023-01-08T06:20:45.713Z,89.12
2023-01-08T06:22:06.213Z,89.50
2023-01-08T06:23:09.568Z,89.65
2023-01-08T06:24:11.632Z,89.81
2023-01-08T06:25:14.576Z,89.74
2023-01-08T06:26:16.430Z,89.47
2023-01-08T06:27:19.195Z,89.77
2023-01-08T06:28:21.321Z,89.97
2023-01-08T06:29:25.014Z,89.48
2023-01-08T06:30:26.853Z,89.61
2023-01-08T06:31:29.732Z,89.19
2023-01-08T06:32:31.819Z,89.67
2023-01-08T06:33:34.673Z,89.50
2023-01-08T06:34:36.543Z,89.47
2023-01-08T06:35:40.799Z,89.09
2023-01-08T06:36:42.587Z,88.86
2023-01-08T06:37:45.371Z,88.66
2023-01-08T06:38:47.232Z,88.64
2023-01-08T06:39:50.986Z,88.64
2023-01-08T06:40:52.727Z,89.16
2023-01-08T06:41:55.549Z,89.45
2023-01-08T06:43:01.303Z,89.39
2023-01-08T06:44:04.110Z,89.47
2023-01-08T06:45:07.735Z,89.60
2023-01-08T06:46:10.901Z,89.89
2023-01-08T06:47:13.629Z,89.83
2023-01-08T06:48:15.703Z,90.10
2023-01-08T06:49:19.974Z,89.73
2023-01-08T06:50:21.778Z,90.32
2023-01-08T06:51:25.942Z,90.10
2023-01-08T06:52:28.885Z,89.89
2023-01-08T06:53:31.110Z,89.92
2023-01-08T06:54:34.207Z,89.88
2023-01-08T06:55:38.178Z,90.10
2023-01-08T06:56:52.842Z,90.36
2023-01-08T06:57:57.457Z,90.04
2023-01-08T06:59:00.292Z,89.93
2023-01-08T07:00:02.471Z,89.83
2023-01-08T07:01:06.089Z,89.82
2023-01-08T07:02:12.130Z,90.04
2023-01-08T07:03:13.979Z,89.96
2023-01-08T07:04:16.792Z,90.11
2023-01-08T07:05:20.040Z,90.29
2023-01-08T07:06:22.408Z,90.68
2023-01-08T07:07:26.567Z,90.37
2023-01-08T07:08:28.346Z,90.30
2023-01-08T07:09:31.159Z,90.28
2023-01-08T07:10:34.616Z,90.44
2023-01-08T07:11:37.346Z,90.50
2023-01-08T07:12:39.167Z,90.66
2023-01-08T07:13:42.016Z,90.71
2023-01-08T07:14:45.015Z,90.66
2023-01-08T07:15:46.916Z,90.77
2023-01-08T07:16:49.811Z,90.89
2023-01-08T07:17:51.596Z,90.98
2023-01-08T07:18:54.314Z,90.88
2023-01-08T07:19:56.448Z,90.70
2023-01-08T07:20:59.224Z,90.88
2023-01-08T07:22:01.070Z,91.01
2023-01-08T07:23:06.653Z,90.88
2023-01-08T07:24:08.814Z,91.27
2023-01-08T07:25:11.970Z,91.26
2023-01-08T07:26:14.215Z,91.25
2023-01-08T07:27:16.963Z,91.52
2023-01-08T07:28:18.738Z,91.68
2023-01-08T07:29:21.859Z,91.60
2023-01-08T07:30:29.689Z,91.65
2023-01-08T07:31:33.747Z,91.72
2023-01-08T07:32:35.574Z,91.53
2023-01-08T07:33:38.337Z,91.48
2023-01-08T07:34:40.102Z,91.66
2023-01-08T07:35:43.233Z,91.40
2023-01-08T07:36:46.271Z,91.29
2023-01-08T07:37:48.064Z,91.38
2023-01-08T07:38:52.420Z,91.63
2023-01-08T07:39:54.213Z,91.81
2023-01-08T07:40:58.439Z,91.78
2023-01-08T07:42:00.333Z,91.71
2023-01-08T07:43:04.588Z,92.07
2023-01-08T07:44:06.603Z,92.41
2023-01-08T07:45:10.301Z,92.63
2023-01-08T07:46:12.153Z,92.91
2023-01-08T07:47:14.998Z,93.06
2023-01-08T07:48:17.209Z,92.85
2023-01-08T07:49:20.013Z,93.27
2023-01-08T07:50:21.870Z,93.31
2023-01-08T07:51:24.658Z,93.21
2023-01-08T07:52:26.513Z,93.39
2023-01-08T07:53:29.514Z,93.51
2023-01-08T07:54:32.735Z,93.89
2023-01-08T07:55:35.473Z,93.96
2023-01-08T07:56:37.331Z,94.30
2023-01-08T07:57:40.583Z,93.89
2023-01-08T07:58:43.664Z,94.07
2023-01-08T07:59:45.466Z,94.27
2023-01-08T08:00:48.591Z,94.10
2023-01-08T08:01:50.444Z,94.25
2023-01-08T08:02:53.467Z,94.81
2023-01-08T08:03:56.544Z,94.88
2023-01-08T08:04:58.303Z,94.51
2023-01-08T08:06:01.501Z,94.80
2023-01-08T08:07:03.356Z,94.61
2023-01-08T08:08:10.178Z,94.76
2023-01-08T08:09:12.932Z,95.12
2023-01-08T08:10:16.125Z,95.51
2023-01-08T08:11:18.837Z,95.76
2023-01-08T08:12:20.621Z,95.88
2023-01-08T08:13:23.471Z,95.89
2023-01-08T08:14:25.230Z,96.08
2023-01-08T08:15:27.986Z,96.17
2023-01-08T08:16:30.858Z,96.18
2023-01-08T08:17:32.945Z,96.23
2023-01-08T08:18:35.726Z,95.89
2023-01-08T08:19:37.579Z,96.34
2023-01-08T08:20:40.323Z,96.24
2023-01-08T08:21:43.049Z,96.36
2023-01-08T08:22:44.881Z,96.35
2023-01-08T08:23:48.007Z,96.19
2023-01-08T08:24:49.741Z,96.50
2023-01-08T08:25:53.970Z,96.18
2023-01-08T08:26:55.733Z,96.55
2023-01-08T08:27:59.370Z,96.44
2023-01-08T08:29:02.199Z,96.63
2023-01-08T08:30:04.911Z,96.48
2023-01-08T08:31:07.746Z,96.67
2023-01-08T08:32:09.568Z,96.23
2023-01-08T08:33:12.290Z,96.53
2023-01-08T08:34:14.100Z,96.75
2023-01-08T08:35:17.151Z,96.66
2023-01-08T08:36:19.941Z,97.04
2023-01-08T08:37:21.728Z,97.20
2023-01-08T08:38:24.954Z,97.07
2023-01-08T08:39:26.791Z,96.96
2023-01-08T08:40:29.857Z,97.24
2023-01-08T08:41:34.089Z,97.58
2023-01-08T08:42:36.962Z,97.34
2023-01-08T08:43:39.690Z,97.84
2023-01-08T08:44:43.024Z,97.94
2023-01-08T08:45:45.972Z,98.16
2023-01-08T08:46:48.784Z,98.24
2023-01-08T08:47:50.695Z,98.32
2023-01-08T08:48:53.391Z,98.38
2023-01-08T08:49:55.278Z,98.61
2023-01-08T08:50:58.158Z,98.78
2023-01-08T08:51:59.890Z,99.05
2023-01-08T08:53:03.461Z,98.82
2023-01-08T08:54:05.468Z,99.08
2023-01-08T08:55:09.071Z,98.99
2023-01-08T08:56:11.812Z,99.35
2023-01-08T08:57:15.032Z,99.53
2023-01-08T08:58:18.197Z,99.58
2023-01-08T08:59:22.612Z,99.38
2023-01-08T09:00:25.450Z,99.52
2023-01-08T09:01:28.287Z,99.63
2023-01-08T09:02:31.854Z,99.36
2023-01-08T09:03:35.281Z,99.32
2023-01-08T09:04:37.188Z,99.28
2023-01-08T09:05:39.955Z,99.31
2023-01-08T09:06:41.764Z,99.56
2023-01-08T09:07:44.554Z,99.35
2023-01-08T09:08:47.406Z,99.59
2023-01-08T09:09:50.155Z,99.50
2023-01-08T09:10:53.164Z,99.47
2023-01-08T09:11:55.950Z,99.70
2023-01-08T09:13:00.045Z,99.67
2023-01-08T09:14:02.876Z,99.92
2023-01-08T09:15:05.456Z,99.78
2023-01-08T09:16:09.092Z,99.82
2023-01-08T09:17:10.894Z,99.85
2023-01-08T09:18:15.889Z,99.84
2023-01-08T09:19:19.070Z,99.80
2023-01-08T09:20:20.891Z,99.92
2023-01-08T09:21:23.715Z,99.95
2023-01-08T09:22:25.718Z,100.00
2023-01-08T09:23:28.469Z,99.99
2023-01-08T09:24:32.298Z,100.00
2023-01-08T09:25:34.212Z,100.00
2023-01-08T09:26:36.961Z,100.00
2023-01-08T09:27:39.664Z,100.00
2023-01-08T09:28:43.794Z,100.00
2023-01-08T09:29:46.543Z,100.00
2023-01-08T09:30:48.287Z,100.00
2023-01-08T09:31:51.913Z,100.00
2023-01-08T09:32:58.218Z,100.00
2023-01-08T09:34:00.621Z,100.00
2023-01-08T09:35:03.591Z,100.00
2023-01-08T09:36:10.535Z,100.00
2023-01-08T09:37:12.459Z,100.00
2023-01-08T09:38:15.647Z,100.00
2023-01-08T09:39:17.375Z,100.00
2023-01-08T09:40:20.711Z,100.00
2023-01-08T09:41:26.224Z,100.00
2023-01-08T09:42:29.127Z,100.00
2023-01-08T09:43:33.307Z,100.00
2023-01-08T09:44:39.522Z,100.00
2023-01-08T09:45:43.256Z,100.00
2023-01-08T09:46:46.406Z,100.00
2023-01-08T09:47:49.640Z,100.00
2023-01-08T09:48:52.532Z,100.00
2023-01-08T09:49:58.405Z,100.00
2023-01-08T09:51:01.262Z,100.00
2023-01-08T09:52:03.855Z,100.00
2023-01-08T09:53:07.071Z,99.85
2023-01-08T09:54:15.804Z,99.63
2023-01-08T09:55:19.110Z,98.79
2023-01-08T09:56:20.951Z,98.92
2023-01-08T09:57:23.895Z,98.81
2023-01-08T09:58:33.082Z,99.07
2023-01-08T09:59:35.833Z,99.06
2023-01-08T10:00:40.076Z,98.70
2023-01-08T10:01:44.631Z,99.46
2023-01-08T10:02:46.598Z,99.32
2023-01-08T10:03:52.084Z,99.67
2023-01-08T10:04:57.595Z,99.91
2023-01-08T10:05:59.429Z,99.80
2023-01-08T10:07:07.264Z,100.00
2023-01-08T10:08:12.033Z,100.00
2023-01-08T10:09:15.992Z,99.91
2023-01-08T10:10:21.518Z,99.88
2023-01-08T10:11:23.817Z,100.00
2023-01-08T10:12:28.956Z,100.00
2023-01-08T10:13:31.327Z,100.00
2023-01-08T10:14:37.924Z,99.94
2023-01-08T10:15:42.360Z,100.00
2023-01-08T10:16:56.078Z,99.81
2023-01-08T10:18:03.379Z,99.92
2023-01-08T10:19:06.352Z,99.71
2023-01-08T10:20:13.551Z,99.81
2023-01-08T10:21:15.559Z,100.00
2023-01-08T10:22:21.156Z,99.85
2023-01-08T10:23:24.038Z,99.32
2023-01-08T10:24:34.133Z,99.39
2023-01-08T10:25:49.111Z,99.88
2023-01-08T10:26:54.368Z,99.08
2023-01-08T10:27:59.914Z,99.46
2023-01-08T10:29:16.181Z,98.72
2023-01-08T10:30:21.127Z,99.10
2023-01-08T10:31:25.350Z,99.45
2023-01-08T10:32:31.570Z,99.63
2023-01-08T10:33:42.951Z,99.15
2023-01-08T10:34:50.286Z,99.26
2023-01-08T10:35:56.113Z,99.07
2023-01-08T10:36:59.004Z,98.74
2023-01-08T10:38:01.678Z,99.02
2023-01-08T10:39:05.368Z,99.77
2023-01-08T10:40:22.039Z,99.00
2023-01-08T10:41:24.022Z,98.72
2023-01-08T10:42:27.514Z,98.21
2023-01-08T10:43:31.494Z,98.33
2023-01-08T10:44:35.856Z,98.71
2023-01-08T10:45:41.957Z,98.45
2023-01-08T10:46:48.192Z,98.73
2023-01-08T10:47:53.049Z,98.60
2023-01-08T10:48:57.958Z,98.41
2023-01-08T10:50:01.514Z,98.15
2023-01-08T10:51:24.689Z,98.82
2023-01-08T10:52:31.703Z,98.77
2023-01-08T10:53:34.663Z,98.27
2023-01-08T10:54:38.918Z,98.54
2023-01-08T10:55:41.682Z,98.22
2023-01-08T10:56:44.736Z,97.93
2023-01-08T10:57:54.961Z,97.54
2023-01-08T10:59:00.840Z,97.52
2023-01-08T11:00:04.591Z,97.74
2023-01-08T11:01:10.760Z,97.93
2023-01-08T11:02:22.730Z,98.16
2023-01-08T11:03:29.881Z,98.48
2023-01-08T11:04:34.862Z,97.56
2023-01-08T11:05:39.099Z,97.56
2023-01-08T11:06:44.294Z,97.54
2023-01-08T11:07:51.443Z,97.33
2023-01-08T11:08:55.925Z,97.20
2023-01-08T11:09:59.051Z,96.64
2023-01-08T11:11:02.581Z,96.72
2023-01-08T11:12:05.845Z,97.55
2023-01-08T11:13:09.026Z,97.79
2023-01-08T11:14:17.337Z,97.94
2023-01-08T11:15:41.648Z,97.66
2023-01-08T11:16:43.719Z,97.76
2023-01-08T11:17:47.836Z,97.62
2023-01-08T11:18:51.785Z,97.38
2023-01-08T11:19:55.961Z,97.89
2023-01-08T11:21:08.920Z,97.11
2023-01-08T11:22:19.932Z,97.62
2023-01-08T11:23:25.092Z,97.64
2023-01-08T11:24:28.744Z,96.69
2023-01-08T11:25:32.282Z,97.24
2023-01-08T11:26:35.567Z,96.73
2023-01-08T11:27:41.089Z,96.71
2023-01-08T11:28:49.723Z,96.81
2023-01-08T11:29:58.140Z,96.48
2023-01-08T11:31:06.327Z,96.30
2023-01-08T11:32:31.628Z,96.48
2023-01-08T11:33:37.469Z,96.41
2023-01-08T11:34:46.231Z,96.68
2023-01-08T11:35:51.716Z,95.93
2023-01-08T11:36:58.826Z,94.34
2023-01-08T11:38:01.937Z,94.26
2023-01-08T11:39:04.815Z,94.76
2023-01-08T11:40:14.075Z,95.23
2023-01-08T11:41:25.889Z,94.99
2023-01-08T11:42:39.088Z,95.07
2023-01-08T11:43:56.161Z,94.71
2023-01-08T11:45:07.449Z,94.88
2023-01-08T11:46:29.555Z,94.41
2023-01-08T11:47:44.884Z,94.86
2023-01-08T11:49:03.629Z,94.78
2023-01-08T11:50:14.096Z,94.44
2023-01-08T11:51:31.011Z,94.23
2023-01-08T11:52:44.458Z,93.87
2023-01-08T11:53:50.363Z,92.96
2023-01-08T11:55:08.448Z,93.58
2023-01-08T11:56:21.477Z,93.94
2023-01-08T11:57:35.018Z,93.90
2023-01-08T11:58:53.523Z,93.25
2023-01-08T12:00:10.687Z,93.64
2023-01-08T12:01:29.418Z,93.17
2023-01-08T12:02:47.596Z,93.82
2023-01-08T12:04:01.644Z,93.15
2023-01-08T12:05:29.205Z,93.71
2023-01-08T12:06:38.170Z,93.35
2023-01-08T12:07:47.126Z,93.23
2023-01-08T12:08:55.410Z,93.40
2023-01-08T12:10:02.286Z,93.12
2023-01-08T12:11:12.376Z,92.00
2023-01-08T12:12:22.596Z,91.24
2023-01-08T12:13:46.816Z,91.47
2023-01-08T12:14:57.438Z,90.99
2023-01-08T12:16:08.976Z,89.24
2023-01-08T12:17:37.433Z,89.10
2023-01-08T12:18:52.021Z,89.03
2023-01-08T12:20:03.839Z,89.42
2023-01-08T12:21:12.352Z,89.02
2023-01-08T12:22:28.249Z,89.66
2023-01-08T12:23:42.988Z,88.75
2023-01-08T12:24:55.277Z,88.79
2023-01-08T12:26:19.346Z,88.00
2023-01-08T12:27:40.855Z,87.92
2023-01-08T12:29:03.912Z,87.70
2023-01-08T12:30:16.261Z,86.93
2023-01-08T12:31:30.436Z,86.54
2023-01-08T12:32:36.369Z,86.13
2023-01-08T12:33:41.022Z,85.88
2023-01-08T12:34:51.148Z,85.19
2023-01-08T12:35:56.054Z,84.66
2023-01-08T12:37:04.243Z,84.51
2023-01-08T12:38:11.495Z,84.62
2023-01-08T12:39:18.071Z,84.76
2023-01-08T12:40:41.960Z,84.63
2023-01-08T12:41:44.307Z,84.53
2023-01-08T12:42:53.450Z,84.92
2023-01-08T12:44:04.877Z,84.73
2023-01-08T12:45:14.330Z,84.84
2023-01-08T12:46:17.842Z,85.00
2023-01-08T12:47:40.206Z,84.92
2023-01-08T12:48:44.908Z,85.57
2023-01-08T12:49:51.537Z,85.52
2023-01-08T12:51:00.968Z,85.26
2023-01-08T12:52:07.547Z,84.70
2023-01-08T12:53:15.555Z,84.10
2023-01-08T12:54:24.843Z,83.20
2023-01-08T12:55:32.216Z,83.32
2023-01-08T12:56:41.236Z,83.13
2023-01-08T12:57:46.512Z,83.60
2023-01-08T12:59:04.924Z,83.79
2023-01-08T13:00:11.640Z,82.84
2023-01-08T13:01:25.211Z,82.82
2023-01-08T13:02:35.291Z,81.96
2023-01-08T13:03:41.284Z,81.92
2023-01-08T13:04:45.758Z,81.74
2023-01-08T13:05:49.429Z,80.98
2023-01-08T13:06:54.288Z,80.72
2023-01-08T13:07:57.690Z,80.30
2023-01-08T13:09:01.793Z,80.19
2023-01-08T13:10:06.832Z,80.67
2023-01-08T13:11:09.957Z,80.56
2023-01-08T13:12:15.941Z,80.47
2023-01-08T13:13:27.590Z,80.25
2023-01-08T13:14:41.788Z,80.21
2023-01-08T13:15:45.144Z,80.18
2023-01-08T13:16:48.926Z,79.84
2023-01-08T13:17:52.354Z,79.70
2023-01-08T13:18:56.827Z,80.08
2023-01-08T13:20:02.224Z,80.07
2023-01-08T13:21:06.301Z,80.24
2023-01-08T13:22:26.903Z,79.86
2023-01-08T13:23:30.485Z,79.51
2023-01-08T13:24:35.476Z,78.88
2023-01-08T13:25:39.960Z,78.93
2023-01-08T13:26:41.771Z,78.93
2023-01-08T13:27:44.794Z,78.81
2023-01-08T13:28:46.620Z,78.48
2023-01-08T13:29:50.447Z,78.24
2023-01-08T13:30:55.571Z,78.26
2023-01-08T13:31:58.423Z,78.06
2023-01-08T13:33:01.353Z,78.01
2023-01-08T13:34:04.116Z,77.91
2023-01-08T13:35:29.446Z,77.24
2023-01-08T13:36:32.693Z,76.92
2023-01-08T13:37:35.419Z,76.70
2023-01-08T13:38:37.223Z,77.06
2023-01-08T13:39:40.136Z,76.65
2023-01-08T13:40:56.560Z,77.04
2023-01-08T13:42:21.427Z,76.92
2023-01-08T13:43:26.562Z,76.97
2023-01-08T13:44:32.067Z,77.05
2023-01-08T13:45:34.054Z,75.92
2023-01-08T13:46:40.750Z,75.93
2023-01-08T13:47:43.744Z,75.60
2023-01-08T13:48:52.272Z,75.08
2023-01-08T13:49:55.819Z,75.42
2023-01-08T13:50:58.692Z,75.55
2023-01-08T13:52:02.931Z,74.99
2023-01-08T13:53:04.914Z,74.89
2023-01-08T13:54:18.679Z,75.68
2023-01-08T13:55:22.713Z,75.00